Time;durP1;ratioP1;P1;durP2;ratioP2;P2;SDS_P1;SDS_P2;PMS_P1;PMS_P2;Temp;Humidity;BMP_temperature;BMP_pressure;BME280_temperature;BME280_humidity;BME280_pressure;Samples;Min_cycle;Max_cycle;Signal;HPM_P1;HPM_P2
2023/01/30 00:00:27;;;;;;;31.00;12.73;;;;;;;;;;5071342;28;20044;-71
2023/01/30 00:02:53;;;;;;;28.90;12.52;;;;;;;;;;5071080;28;20098;-71
2023/01/30 00:05:19;;;;;;;33.95;13.90;;;;;;;;;;5070978;28;20044;-71
2023/01/30 00:07:46;;;;;;;26.42;11.73;;;;;;;;;;5071143;28;20119;-72
2023/01/30 00:10:12;;;;;;;26.30;12.68;;;;;;;;;;5070570;28;20040;-71
2023/01/30 00:12:39;;;;;;;26.90;12.38;;;;;;;;;;5071135;28;20076;-71
2023/01/30 00:15:05;;;;;;;30.08;12.73;;;;;;;;;;5070552;28;20040;-72
2023/01/30 00:17:31;;;;;;;30.20;13.23;;;;;;;;;;5071187;28;20822;-72
2023/01/30 00:19:57;;;;;;;28.60;11.90;;;;;;;;;;5070805;28;20549;-72
2023/01/30 00:22:23;;;;;;;24.33;10.10;;;;;;;;;;5071080;28;20397;-72
2023/01/30 00:24:49;;;;;;;27.15;11.63;;;;;;;;;;5071111;28;20465;-71
2023/01/30 00:27:15;;;;;;;28.00;11.00;;;;;;;;;;5070383;28;20044;-71
2023/01/30 00:29:42;;;;;;;24.23;11.02;;;;;;;;;;5070775;28;20048;-71
2023/01/30 00:32:08;;;;;;;24.73;10.52;;;;;;;;;;5070159;28;20032;-72
2023/01/30 00:34:34;;;;;;;24.98;8.93;;;;;;;;;;5061298;28;20059;-71
2023/01/30 00:37:00;;;;;;;22.15;8.50;;;;;;;;;;5070285;28;20055;-72
2023/01/30 00:39:26;;;;;;;19.48;8.40;;;;;;;;;;5054090;28;20098;-71
2023/01/30 00:47:22;;;;;;;19.20;8.02;;;;;;;;;;5070510;28;20074;-71
2023/01/30 00:49:48;;;;;;;18.92;7.22;;;;;;;;;;5070546;28;20048;-71
2023/01/30 00:52:14;;;;;;;20.35;7.47;;;;;;;;;;5069786;28;20037;-71
2023/01/30 00:54:40;;;;;;;20.83;7.70;;;;;;;;;;5070671;28;20036;-71
2023/01/30 00:57:06;;;;;;;18.75;6.80;;;;;;;;;;5072925;28;20123;-72
2023/01/30 00:59:32;;;;;;;18.45;6.60;;;;;;;;;;5074311;28;20140;-71
2023/01/30 01:01:58;;;;;;;19.55;6.75;;;;;;;;;;5074485;28;20527;-72
2023/01/30 01:04:24;;;;;;;21.50;6.38;;;;;;;;;;5074127;28;20503;-72
2023/01/30 01:06:51;;;;;;;21.02;6.65;;;;;;;;;;5057822;28;20084;-72
2023/01/30 01:09:17;;;;;;;17.77;7.25;;;;;;;;;;5075174;28;20032;-72
2023/01/30 01:11:43;;;;;;;18.58;7.50;;;;;;;;;;5074306;28;20543;-73
2023/01/30 01:14:09;;;;;;;22.80;6.93;;;;;;;;;;5073701;28;20044;-72
2023/01/30 01:16:35;;;;;;;18.60;7.03;;;;;;;;;;5074002;28;20044;-72
2023/01/30 01:19:01;;;;;;;19.75;6.72;;;;;;;;;;5074507;28;20103;-72
2023/01/30 01:21:27;;;;;;;25.95;7.90;;;;;;;;;;5073526;28;20047;-72
2023/01/30 01:23:55;;;;;;;20.50;7.10;;;;;;;;;;5057144;28;20044;-72
2023/01/30 01:26:21;;;;;;;18.25;6.75;;;;;;;;;;5073458;28;20040;-72
2023/01/30 01:28:47;;;;;;;20.25;6.30;;;;;;;;;;5074071;28;20032;-72
2023/01/30 01:31:14;;;;;;;22.63;6.55;;;;;;;;;;5074705;28;20043;-72
2023/01/30 01:33:40;;;;;;;25.38;6.90;;;;;;;;;;5055394;28;20041;-72
2023/01/30 01:36:06;;;;;;;24.48;6.30;;;;;;;;;;5066367;28;20051;-72
2023/01/30 01:38:33;;;;;;;23.30;7.72;;;;;;;;;;5057092;28;20032;-72
2023/01/30 01:41:02;;;;;;;19.13;6.22;;;;;;;;;;5073430;28;20137;-72
2023/01/30 01:43:32;;;;;;;24.10;6.60;;;;;;;;;;5073392;28;20037;-72
2023/01/30 01:46:00;;;;;;;20.83;6.22;;;;;;;;;;5073908;28;20044;-73
2023/01/30 01:48:47;;;;;;;22.33;6.07;;;;;;;;;;5074398;28;20044;-72
2023/01/30 01:51:22;;;;;;;21.17;6.43;;;;;;;;;;5074114;28;20090;-72
2023/01/30 01:53:51;;;;;;;16.70;4.80;;;;;;;;;;5073227;28;20128;-72
2023/01/30 01:56:17;;;;;;;20.65;5.97;;;;;;;;;;5072825;28;20348;-73
2023/01/30 01:58:57;;;;;;;15.75;5.03;;;;;;;;;;5073412;28;20048;-72
2023/01/30 02:01:24;;;;;;;16.40;5.35;;;;;;;;;;5073146;28;20044;-72
2023/01/30 02:03:55;;;;;;;18.13;5.85;;;;;;;;;;5056674;28;20144;-73
2023/01/30 02:06:22;;;;;;;20.60;5.07;;;;;;;;;;5072545;28;20040;-72
2023/01/30 02:08:53;;;;;;;18.98;6.18;;;;;;;;;;5072637;28;20438;-72
2023/01/30 02:11:25;;;;;;;22.35;5.80;;;;;;;;;;5072879;28;20431;-72
2023/01/30 02:13:51;;;;;;;22.40;5.55;;;;;;;;;;5073312;28;20087;-72
2023/01/30 02:16:17;;;;;;;20.50;6.00;;;;;;;;;;5072555;28;20079;-72
2023/01/30 02:18:45;;;;;;;23.48;5.57;;;;;;;;;;5073101;28;20067;-72
2023/01/30 02:21:23;;;;;;;23.77;4.88;;;;;;;;;;5073013;28;20049;-72
2023/01/30 02:23:55;;;;;;;21.83;5.15;;;;;;;;;;5074320;28;20119;-72
2023/01/30 02:26:24;;;;;;;18.35;5.03;;;;;;;;;;5072744;28;20080;-72
2023/01/30 02:29:03;;;;;;;20.45;5.10;;;;;;;;;;5056494;28;20040;-72
2023/01/30 02:31:36;;;;;;;16.98;4.45;;;;;;;;;;5074209;28;20045;-72
2023/01/30 02:34:11;;;;;;;23.00;5.13;;;;;;;;;;5067946;28;20048;-72
2023/01/30 02:36:56;;;;;;;18.33;4.82;;;;;;;;;;5069064;28;20032;-72
2023/01/30 02:39:28;;;;;;;17.58;4.82;;;;;;;;;;5072425;28;20040;-73
2023/01/30 02:42:01;;;;;;;20.75;5.10;;;;;;;;;;5072219;28;20041;-73
2023/01/30 02:44:34;;;;;;;21.92;4.95;;;;;;;;;;5055370;28;20048;-73
2023/01/30 02:47:05;;;;;;;22.33;4.65;;;;;;;;;;5072634;28;20045;-73
2023/01/30 02:49:34;;;;;;;22.30;5.05;;;;;;;;;;5073165;28;20055;-72
2023/01/30 02:52:01;;;;;;;25.48;5.22;;;;;;;;;;5072490;28;20115;-72
2023/01/30 02:54:27;;;;;;;21.90;5.35;;;;;;;;;;5073089;28;20040;-72
2023/01/30 02:56:56;;;;;;;18.95;4.53;;;;;;;;;;5055464;28;20521;-72
2023/01/30 02:59:27;;;;;;;24.65;5.35;;;;;;;;;;5072867;28;20106;-72
2023/01/30 03:02:11;;;;;;;22.65;4.75;;;;;;;;;;5059766;28;20407;-72
2023/01/30 03:04:40;;;;;;;27.75;5.80;;;;;;;;;;5054014;28;20045;-72
2023/01/30 03:07:10;;;;;;;22.85;5.18;;;;;;;;;;5072105;28;20485;-72
2023/01/30 03:09:53;;;;;;;23.60;5.70;;;;;;;;;;5071401;28;20106;-72
2023/01/30 03:12:19;;;;;;;20.67;5.25;;;;;;;;;;5072606;28;20086;-73
2023/01/30 03:14:48;;;;;;;18.00;4.68;;;;;;;;;;5071666;28;20045;-73
2023/01/30 03:17:16;;;;;;;21.30;5.75;;;;;;;;;;5073273;28;20044;-73
2023/01/30 03:19:42;;;;;;;22.38;5.32;;;;;;;;;;5071350;28;20040;-73
2023/01/30 03:22:09;;;;;;;23.60;5.80;;;;;;;;;;5071710;28;20067;-72
2023/01/30 03:24:35;;;;;;;25.80;5.07;;;;;;;;;;5068001;28;20563;-72
2023/01/30 03:27:03;;;;;;;27.30;6.43;;;;;;;;;;5051028;28;20529;-72
2023/01/30 03:29:29;;;;;;;19.52;5.40;;;;;;;;;;5067940;28;20086;-73
2023/01/30 03:31:55;;;;;;;27.13;6.28;;;;;;;;;;5051602;28;20124;-72
2023/01/30 03:34:22;;;;;;;18.48;4.57;;;;;;;;;;5050941;28;20033;-72
2023/01/30 03:36:48;;;;;;;18.25;5.07;;;;;;;;;;5051891;28;20555;-72
2023/01/30 03:39:14;;;;;;;17.92;4.65;;;;;;;;;;5051383;28;20106;-72
2023/01/30 03:41:40;;;;;;;22.67;5.72;;;;;;;;;;5050997;28;20045;-72
2023/01/30 03:44:06;;;;;;;15.57;4.35;;;;;;;;;;5051229;28;20490;-72
2023/01/30 03:46:32;;;;;;;18.35;5.18;;;;;;;;;;5050950;28;20041;-72
2023/01/30 03:48:58;;;;;;;21.00;4.72;;;;;;;;;;5051024;28;20056;-72
2023/01/30 03:51:24;;;;;;;23.08;5.35;;;;;;;;;;5050774;28;20047;-72
2023/01/30 03:53:50;;;;;;;20.55;5.13;;;;;;;;;;5050854;28;20095;-72
2023/01/30 03:56:16;;;;;;;25.52;5.32;;;;;;;;;;5051115;28;20039;-72
2023/01/30 03:58:42;;;;;;;19.95;6.18;;;;;;;;;;5050404;28;20059;-72
2023/01/30 04:01:08;;;;;;;19.65;4.53;;;;;;;;;;5050792;28;20078;-72
2023/01/30 04:03:35;;;;;;;22.35;4.70;;;;;;;;;;5033936;28;20076;-72
2023/01/30 04:06:01;;;;;;;26.83;4.72;;;;;;;;;;5051970;28;20041;-72
2023/01/30 04:08:27;;;;;;;14.85;4.32;;;;;;;;;;5051887;28;20500;-72
2023/01/30 04:10:53;;;;;;;20.52;4.90;;;;;;;;;;5034162;28;20052;-72
2023/01/30 04:13:19;;;;;;;18.58;4.63;;;;;;;;;;5034321;28;20410;-72
2023/01/30 04:15:45;;;;;;;18.45;4.00;;;;;;;;;;5050285;28;20044;-72
2023/01/30 04:18:11;;;;;;;17.77;4.75;;;;;;;;;;5050734;28;20142;-72
2023/01/30 04:20:37;;;;;;;22.02;4.20;;;;;;;;;;5050399;28;20037;-72
2023/01/30 04:23:03;;;;;;;23.63;4.53;;;;;;;;;;5050671;28;20091;-72
2023/01/30 04:25:29;;;;;;;17.08;3.88;;;;;;;;;;5033597;28;20036;-72
2023/01/30 04:27:56;;;;;;;20.15;3.67;;;;;;;;;;5052073;28;20037;-72
2023/01/30 04:30:22;;;;;;;18.35;3.80;;;;;;;;;;5034306;28;20037;-72
2023/01/30 04:32:48;;;;;;;19.42;3.75;;;;;;;;;;5038142;28;20041;-73
2023/01/30 04:35:14;;;;;;;18.70;3.20;;;;;;;;;;5037837;28;20041;-72
2023/01/30 04:37:40;;;;;;;19.52;3.97;;;;;;;;;;5038054;28;20524;-72
2023/01/30 04:40:07;;;;;;;23.45;4.18;;;;;;;;;;5056214;28;20528;-72
2023/01/30 04:42:33;;;;;;;19.50;4.13;;;;;;;;;;5056167;28;20091;-72
2023/01/30 04:44:59;;;;;;;19.95;3.63;;;;;;;;;;5038092;28;20045;-72
2023/01/30 04:47:25;;;;;;;19.80;3.33;;;;;;;;;;5054912;28;20045;-72
2023/01/30 04:49:51;;;;;;;19.02;3.13;;;;;;;;;;5055495;28;20130;-71
2023/01/30 04:52:17;;;;;;;22.38;3.72;;;;;;;;;;5037912;28;20033;-72
2023/01/30 04:54:43;;;;;;;22.33;4.63;;;;;;;;;;5054046;28;20045;-72
2023/01/30 04:57:09;;;;;;;22.73;4.05;;;;;;;;;;5054134;28;20111;-71
2023/01/30 04:59:35;;;;;;;26.65;3.78;;;;;;;;;;5037325;28;20151;-72
2023/01/30 05:02:01;;;;;;;26.02;3.88;;;;;;;;;;5051991;28;20132;-71
2023/01/30 05:04:27;;;;;;;24.15;4.13;;;;;;;;;;5037709;28;20044;-72
2023/01/30 05:06:53;;;;;;;22.85;4.82;;;;;;;;;;5036835;28;20592;-72
2023/01/30 05:09:19;;;;;;;26.02;3.80;;;;;;;;;;5056097;28;20466;-72
2023/01/30 05:11:45;;;;;;;19.02;3.28;;;;;;;;;;5053972;28;20494;-72
2023/01/30 05:14:11;;;;;;;24.08;4.30;;;;;;;;;;5054335;28;20315;-72
2023/01/30 05:16:38;;;;;;;23.55;3.60;;;;;;;;;;5053922;28;20071;-72
2023/01/30 05:19:04;;;;;;;26.02;4.07;;;;;;;;;;5054336;28;20043;-72
2023/01/30 05:21:30;;;;;;;19.48;3.20;;;;;;;;;;5055915;28;20094;-72
2023/01/30 05:23:56;;;;;;;23.25;3.80;;;;;;;;;;5054099;28;20040;-71
2023/01/30 05:26:23;;;;;;;25.38;3.60;;;;;;;;;;5054176;28;20072;-72
2023/01/30 05:28:56;;;;;;;22.67;3.65;;;;;;;;;;5055027;28;20076;-71
2023/01/30 05:31:22;;;;;;;27.10;4.18;;;;;;;;;;5053588;28;20061;-72
2023/01/30 05:33:50;;;;;;;23.33;3.30;;;;;;;;;;5053568;28;20045;-72
2023/01/30 05:36:18;;;;;;;29.00;4.20;;;;;;;;;;5053977;28;20055;-71
2023/01/30 05:38:44;;;;;;;25.80;3.38;;;;;;;;;;5053313;28;20037;-71
2023/01/30 05:41:11;;;;;;;20.00;3.30;;;;;;;;;;5053637;28;20049;-71
2023/01/30 05:43:37;;;;;;;17.45;2.88;;;;;;;;;;5053255;28;20045;-72
2023/01/30 05:46:04;;;;;;;21.83;3.25;;;;;;;;;;5036851;28;20115;-72
2023/01/30 05:48:31;;;;;;;24.52;4.68;;;;;;;;;;5037172;28;20520;-72
2023/01/30 05:50:58;;;;;;;25.70;4.38;;;;;;;;;;5053261;28;20060;-71
2023/01/30 05:53:26;;;;;;;20.05;3.33;;;;;;;;;;5053388;28;20095;-71
2023/01/30 05:55:59;;;;;;;19.80;2.65;;;;;;;;;;5052769;28;20041;-71
2023/01/30 05:58:25;;;;;;;16.10;2.88;;;;;;;;;;5069973;28;20041;-71
2023/01/30 06:00:52;;;;;;;24.73;3.20;;;;;;;;;;5036371;28;20409;-71
2023/01/30 06:03:18;;;;;;;20.27;3.15;;;;;;;;;;5053571;28;20513;-71
2023/01/30 06:05:44;;;;;;;23.98;3.35;;;;;;;;;;5053359;28;20524;-71
2023/01/30 06:08:11;;;;;;;22.25;3.22;;;;;;;;;;5036638;28;20068;-71
2023/01/30 06:10:37;;;;;;;20.90;3.15;;;;;;;;;;5053201;28;20508;-72
2023/01/30 06:13:03;;;;;;;27.88;3.45;;;;;;;;;;5052627;28;20045;-71
2023/01/30 06:15:29;;;;;;;17.10;2.92;;;;;;;;;;5052909;28;20048;-72
2023/01/30 06:17:55;;;;;;;19.13;2.78;;;;;;;;;;5052519;28;20043;-72
2023/01/30 06:20:21;;;;;;;17.55;2.83;;;;;;;;;;5053175;28;20138;-72
2023/01/30 06:22:48;;;;;;;18.38;3.08;;;;;;;;;;5052906;28;20497;-72
2023/01/30 06:25:14;;;;;;;23.80;3.72;;;;;;;;;;5052997;28;20049;-72
2023/01/30 06:27:42;;;;;;;20.48;3.10;;;;;;;;;;5052928;28;20048;-72
2023/01/30 06:30:11;;;;;;;23.85;3.95;;;;;;;;;;5054079;28;20497;-72
2023/01/30 06:32:37;;;;;;;24.92;3.72;;;;;;;;;;5019397;28;20141;-71
2023/01/30 06:35:03;;;;;;;24.50;3.22;;;;;;;;;;5052099;28;20055;-71
2023/01/30 06:37:29;;;;;;;18.95;3.22;;;;;;;;;;5052524;28;20074;-71
2023/01/30 06:39:55;;;;;;;25.52;3.95;;;;;;;;;;5052551;28;20047;-72
2023/01/30 06:42:24;;;;;;;22.27;3.72;;;;;;;;;;5035841;28;20041;-72
2023/01/30 06:44:50;;;;;;;27.70;3.67;;;;;;;;;;5052076;28;20052;-72
2023/01/30 06:47:16;;;;;;;18.30;3.00;;;;;;;;;;5052190;28;20079;-72
2023/01/30 06:49:45;;;;;;;23.10;3.00;;;;;;;;;;5052510;28;20112;-72
2023/01/30 06:52:11;;;;;;;21.95;2.90;;;;;;;;;;5035674;28;20147;-72
2023/01/30 06:54:42;;;;;;;18.70;3.03;;;;;;;;;;5068761;28;20064;-72
2023/01/30 06:57:08;;;;;;;19.70;3.35;;;;;;;;;;5051754;28;20045;-72
2023/01/30 06:59:34;;;;;;;20.90;3.47;;;;;;;;;;5052330;28;20041;-72
2023/01/30 07:02:07;;;;;;;21.58;3.15;;;;;;;;;;5051998;28;20047;-72
2023/01/30 07:04:33;;;;;;;23.75;2.80;;;;;;;;;;5040436;28;20040;-72
2023/01/30 07:06:59;;;;;;;17.80;2.88;;;;;;;;;;5053000;28;20073;-72
2023/01/30 07:09:25;;;;;;;24.45;3.30;;;;;;;;;;5052310;28;20443;-73
2023/01/30 07:11:51;;;;;;;26.15;3.10;;;;;;;;;;5051724;28;20565;-72
2023/01/30 07:14:17;;;;;;;23.90;3.30;;;;;;;;;;5068710;28;20079;-72
2023/01/30 07:16:43;;;;;;;21.45;3.22;;;;;;;;;;5019015;28;20071;-72
2023/01/30 07:19:09;;;;;;;26.20;3.58;;;;;;;;;;5051384;28;20045;-73
2023/01/30 07:21:35;;;;;;;22.58;3.38;;;;;;;;;;5051815;28;20083;-72
2023/01/30 07:24:01;;;;;;;22.65;3.03;;;;;;;;;;5052638;28;20048;-73
2023/01/30 07:26:29;;;;;;;26.02;3.17;;;;;;;;;;5034975;28;20068;-72
2023/01/30 07:28:56;;;;;;;26.17;3.47;;;;;;;;;;5051442;28;20410;-72
2023/01/30 07:31:22;;;;;;;21.67;2.80;;;;;;;;;;5051599;28;20482;-72
2023/01/30 07:33:48;;;;;;;33.38;4.40;;;;;;;;;;5051394;28;20551;-72
2023/01/30 07:36:14;;;;;;;24.42;2.88;;;;;;;;;;5051461;28;20075;-72
2023/01/30 07:38:40;;;;;;;26.55;4.47;;;;;;;;;;5051362;28;20041;-72
2023/01/30 07:41:06;;;;;;;22.33;3.03;;;;;;;;;;5051548;28;20506;-72
2023/01/30 07:43:32;;;;;;;28.77;3.80;;;;;;;;;;5052742;28;20497;-72
2023/01/30 07:46:00;;;;;;;33.47;4.45;;;;;;;;;;5051420;28;20516;-72
2023/01/30 07:48:26;;;;;;;24.23;3.10;;;;;;;;;;5051165;28;20401;-72
2023/01/30 07:50:55;;;;;;;24.45;3.42;;;;;;;;;;5050893;28;20044;-72
2023/01/30 07:53:21;;;;;;;22.35;2.63;;;;;;;;;;5051370;28;20045;-73
2023/01/30 07:55:47;;;;;;;23.05;3.60;;;;;;;;;;5034666;28;20116;-72
2023/01/30 07:58:14;;;;;;;18.27;3.38;;;;;;;;;;5050611;28;20091;-72
2023/01/30 08:00:40;;;;;;;20.95;3.20;;;;;;;;;;5051036;28;20047;-72
2023/01/30 08:03:10;;;;;;;25.20;3.53;;;;;;;;;;5050542;28;20037;-72
2023/01/30 08:05:37;;;;;;;25.92;4.32;;;;;;;;;;5050502;28;20510;-72
2023/01/30 08:08:03;;;;;;;22.88;3.35;;;;;;;;;;5050898;28;20425;-72
2023/01/30 08:10:29;;;;;;;23.92;3.55;;;;;;;;;;5034542;28;20047;-72
2023/01/30 08:12:55;;;;;;;25.63;3.50;;;;;;;;;;5033820;28;20040;-72
2023/01/30 08:15:21;;;;;;;25.98;3.33;;;;;;;;;;5051257;28;20045;-72
2023/01/30 08:17:56;;;;;;;30.92;3.42;;;;;;;;;;5052123;28;20120;-72
2023/01/30 08:20:23;;;;;;;32.65;3.67;;;;;;;;;;5051027;28;20037;-72
2023/01/30 08:22:49;;;;;;;22.08;3.63;;;;;;;;;;5050717;28;20071;-72
2023/01/30 08:25:15;;;;;;;24.02;3.38;;;;;;;;;;5052048;28;20045;-72
2023/01/30 08:27:41;;;;;;;28.45;2.95;;;;;;;;;;5034067;28;20053;-72
2023/01/30 08:30:08;;;;;;;23.45;3.40;;;;;;;;;;5034110;28;20076;-72
2023/01/30 08:32:34;;;;;;;22.80;3.95;;;;;;;;;;5051926;28;20116;-72
2023/01/30 08:35:00;;;;;;;28.08;4.38;;;;;;;;;;5049822;28;20048;-72
2023/01/30 08:37:26;;;;;;;19.95;4.03;;;;;;;;;;5050720;28;20036;-72
2023/01/30 08:39:52;;;;;;;23.98;3.63;;;;;;;;;;5050667;28;20167;-72
2023/01/30 08:42:18;;;;;;;27.42;3.58;;;;;;;;;;5050216;28;20041;-72
2023/01/30 08:44:44;;;;;;;21.75;3.28;;;;;;;;;;5034172;28;20072;-72
2023/01/30 08:47:10;;;;;;;26.33;3.78;;;;;;;;;;5033628;28;20037;-72
2023/01/30 08:49:36;;;;;;;17.30;2.95;;;;;;;;;;5033980;28;20120;-72
2023/01/30 08:52:02;;;;;;;22.35;3.95;;;;;;;;;;5050215;28;20374;-72
2023/01/30 08:54:28;;;;;;;25.52;3.78;;;;;;;;;;5050480;28;20045;-72
2023/01/30 08:56:54;;;;;;;19.92;2.88;;;;;;;;;;5050255;28;20076;-72
2023/01/30 08:59:21;;;;;;;19.95;3.35;;;;;;;;;;5049969;28;20496;-72
2023/01/30 09:01:47;;;;;;;19.27;3.22;;;;;;;;;;5050481;28;20115;-72
2023/01/30 09:04:13;;;;;;;22.73;3.67;;;;;;;;;;5049798;28;20041;-72
2023/01/30 09:06:39;;;;;;;24.70;3.33;;;;;;;;;;5034029;28;20374;-72
2023/01/30 09:09:05;;;;;;;23.90;3.00;;;;;;;;;;5049870;28;20132;-72
2023/01/30 09:11:31;;;;;;;21.45;3.30;;;;;;;;;;5050499;28;20490;-72
2023/01/30 09:13:57;;;;;;;29.98;3.78;;;;;;;;;;5050168;28;20053;-72
2023/01/30 09:16:23;;;;;;;27.25;3.97;;;;;;;;;;5050085;28;20033;-72
2023/01/30 09:18:49;;;;;;;20.60;3.33;;;;;;;;;;5055147;28;20048;-72
2023/01/30 09:21:15;;;;;;;22.38;3.58;;;;;;;;;;5037220;28;20091;-72
2023/01/30 09:23:41;;;;;;;23.25;3.25;;;;;;;;;;5053947;28;20171;-72
2023/01/30 09:26:08;;;;;;;22.95;3.78;;;;;;;;;;5053524;28;20041;-72
2023/01/30 09:28:34;;;;;;;18.92;3.20;;;;;;;;;;5054117;28;20083;-72
2023/01/30 09:31:00;;;;;;;25.40;3.40;;;;;;;;;;5053944;28;20059;-73
2023/01/30 09:33:27;;;;;;;23.45;3.83;;;;;;;;;;5054003;28;20095;-73
2023/01/30 09:35:53;;;;;;;19.92;3.90;;;;;;;;;;5053826;28;20545;-72
2023/01/30 09:38:20;;;;;;;26.88;3.45;;;;;;;;;;5053216;28;20410;-73
2023/01/30 09:40:58;;;;;;;17.63;3.05;;;;;;;;;;5053755;28;20041;-72
2023/01/30 09:43:27;;;;;;;27.45;4.57;;;;;;;;;;5053445;28;20033;-73
2023/01/30 09:45:56;;;;;;;22.77;4.10;;;;;;;;;;5053868;28;20064;-73
2023/01/30 09:48:35;;;;;;;24.83;3.88;;;;;;;;;;5036597;28;20040;-73
2023/01/30 09:51:07;;;;;;;22.20;5.07;;;;;;;;;;5040637;28;20072;-73
2023/01/30 09:53:45;;;;;;;23.35;4.68;;;;;;;;;;5036755;28;20045;-73
2023/01/30 09:56:11;;;;;;;21.38;4.53;;;;;;;;;;5041733;28;20048;-73
2023/01/30 09:58:42;;;;;;;30.42;4.13;;;;;;;;;;5053194;28;20044;-73
2023/01/30 10:01:15;;;;;;;20.05;3.50;;;;;;;;;;5053296;28;20536;-73
2023/01/30 10:03:47;;;;;;;20.55;3.28;;;;;;;;;;5053458;28;20124;-73
2023/01/30 10:06:14;;;;;;;17.50;3.35;;;;;;;;;;5052916;28;20116;-73
2023/01/30 10:08:40;;;;;;;21.95;3.90;;;;;;;;;;5054729;28;20056;-73
2023/01/30 10:11:24;;;;;;;24.73;4.30;;;;;;;;;;5052674;28;20103;-73
2023/01/30 10:14:02;;;;;;;20.75;3.13;;;;;;;;;;5053260;28;20037;-74
2023/01/30 10:16:44;;;;;;;23.60;4.00;;;;;;;;;;5039809;28;20474;-73
2023/01/30 10:19:13;;;;;;;26.23;3.63;;;;;;;;;;5052690;28;20516;-74
2023/01/30 10:21:39;;;;;;;18.67;3.70;;;;;;;;;;5036329;28;20044;-73
2023/01/30 10:24:24;;;;;;;19.05;3.97;;;;;;;;;;5052922;28;20045;-73
2023/01/30 10:26:50;;;;;;;24.27;4.90;;;;;;;;;;5041034;28;20094;-73
2023/01/30 10:29:28;;;;;;;27.40;3.65;;;;;;;;;;5051340;28;20068;-74
2023/01/30 10:31:57;;;;;;;19.70;3.58;;;;;;;;;;5052706;28;20033;-73
2023/01/30 10:34:34;;;;;;;21.23;3.50;;;;;;;;;;5052272;28;20037;-73
2023/01/30 10:37:09;;;;;;;19.42;3.10;;;;;;;;;;5052536;28;20033;-73
2023/01/30 10:39:41;;;;;;;23.52;3.17;;;;;;;;;;5052732;28;20041;-73
2023/01/30 10:42:11;;;;;;;27.33;3.45;;;;;;;;;;5052514;28;20047;-72
2023/01/30 10:44:38;;;;;;;17.92;3.80;;;;;;;;;;5052831;28;20394;-73
2023/01/30 10:47:05;;;;;;;23.08;3.60;;;;;;;;;;5052684;28;20416;-73
2023/01/30 10:49:41;;;;;;;24.55;3.78;;;;;;;;;;5051930;28;20116;-73
2023/01/30 10:52:10;;;;;;;29.77;4.28;;;;;;;;;;5052080;28;20044;-73
2023/01/30 10:54:42;;;;;;;30.63;4.63;;;;;;;;;;5052737;28;20581;-73
2023/01/30 10:57:23;;;;;;;22.70;3.90;;;;;;;;;;5052231;28;21299;-73
2023/01/30 10:59:55;;;;;;;28.92;5.32;;;;;;;;;;5052433;28;20049;-73
2023/01/30 11:02:39;;;;;;;25.08;4.47;;;;;;;;;;5051769;28;20045;-73
2023/01/30 11:05:14;;;;;;;29.30;8.90;;;;;;;;;;5052449;28;20045;-73
2023/01/30 11:07:40;;;;;;;23.90;5.03;;;;;;;;;;5053287;28;20069;-73
2023/01/30 11:10:14;;;;;;;28.23;4.43;;;;;;;;;;5051958;28;20094;-73
2023/01/30 11:12:40;;;;;;;31.38;4.80;;;;;;;;;;5051740;28;20072;-73
2023/01/30 11:15:07;;;;;;;23.95;3.38;;;;;;;;;;5052006;28;20048;-73
2023/01/30 11:17:38;;;;;;;27.73;4.57;;;;;;;;;;5051642;28;20045;-72
2023/01/30 11:20:07;;;;;;;30.48;4.72;;;;;;;;;;5035211;28;20052;-72
2023/01/30 11:22:34;;;;;;;26.38;4.68;;;;;;;;;;5051064;28;20040;-72
2023/01/30 11:25:05;;;;;;;29.77;4.53;;;;;;;;;;5051990;28;20509;-72
2023/01/30 11:27:32;;;;;;;27.02;5.50;;;;;;;;;;5067887;28;20056;-73
2023/01/30 11:30:04;;;;;;;25.63;4.13;;;;;;;;;;5037640;28;20051;-72
2023/01/30 11:32:30;;;;;;;23.60;3.90;;;;;;;;;;5034507;28;20037;-73
2023/01/30 11:35:14;;;;;;;22.27;3.95;;;;;;;;;;5051398;28;20053;-72
2023/01/30 11:37:42;;;;;;;28.48;3.92;;;;;;;;;;5051578;28;20498;-72
2023/01/30 11:40:18;;;;;;;23.73;4.03;;;;;;;;;;5034685;28;20094;-72
2023/01/30 11:42:48;;;;;;;21.83;3.67;;;;;;;;;;5051486;28;20047;-72
2023/01/30 11:45:15;;;;;;;28.77;4.53;;;;;;;;;;5051357;28;20037;-72
2023/01/30 11:47:56;;;;;;;24.92;4.07;;;;;;;;;;5051164;28;20081;-72
2023/01/30 11:50:24;;;;;;;31.63;4.80;;;;;;;;;;5050964;28;20060;-72
2023/01/30 11:52:50;;;;;;;29.70;4.05;;;;;;;;;;5051070;28;20036;-72
2023/01/30 11:55:17;;;;;;;31.98;4.88;;;;;;;;;;5034733;28;20136;-72
2023/01/30 11:57:45;;;;;;;23.23;3.58;;;;;;;;;;5050696;28;20067;-72
2023/01/30 12:00:17;;;;;;;21.63;3.60;;;;;;;;;;5051170;28;20047;-72
2023/01/30 12:02:44;;;;;;;19.23;3.05;;;;;;;;;;5050755;28;20044;-72
2023/01/30 12:05:26;;;;;;;21.90;4.15;;;;;;;;;;5051152;28;20044;-72
2023/01/30 12:07:52;;;;;;;23.23;3.83;;;;;;;;;;5037011;28;20076;-72
2023/01/30 12:10:21;;;;;;;21.67;4.00;;;;;;;;;;5051109;28;20047;-72
2023/01/30 12:12:50;;;;;;;22.35;4.30;;;;;;;;;;5051070;28;20037;-72
2023/01/30 12:15:19;;;;;;;26.05;3.40;;;;;;;;;;5051270;28;20490;-72
2023/01/30 12:17:45;;;;;;;23.05;3.08;;;;;;;;;;5034287;28;20065;-72
2023/01/30 12:20:30;;;;;;;18.45;2.65;;;;;;;;;;5041478;28;20038;-72
2023/01/30 12:22:56;;;;;;;16.05;2.90;;;;;;;;;;5032291;28;20045;-72
2023/01/30 12:25:26;;;;;;;18.30;3.03;;;;;;;;;;5050780;28;20477;-73
2023/01/30 12:27:58;;;;;;;15.02;2.50;;;;;;;;;;5034115;28;20048;-72
2023/01/30 12:30:28;;;;;;;21.40;2.95;;;;;;;;;;5050365;28;20045;-72
2023/01/30 12:32:56;;;;;;;15.20;2.35;;;;;;;;;;5050609;28;20037;-73
2023/01/30 12:35:25;;;;;;;17.85;2.85;;;;;;;;;;5053426;28;20423;-72
2023/01/30 12:37:59;;;;;;;18.67;2.92;;;;;;;;;;5050671;28;20044;-72
2023/01/30 12:40:37;;;;;;;16.13;2.10;;;;;;;;;;5050470;28;20462;-72
2023/01/30 12:43:15;;;;;;;17.45;2.30;;;;;;;;;;5050688;28;20049;-72
2023/01/30 12:45:57;;;;;;;17.40;2.40;;;;;;;;;;5051698;28;20041;-72
2023/01/30 12:48:58;;;;;;;21.98;2.92;;;;;;;;;;5050822;28;20040;-72
2023/01/30 12:51:27;;;;;;;17.52;2.80;;;;;;;;;;5013149;28;20041;-72
2023/01/30 12:53:59;;;;;;;20.65;3.10;;;;;;;;;;5050365;28;20118;-72
2023/01/30 12:56:44;;;;;;;25.70;3.80;;;;;;;;;;5054548;28;20090;-72
2023/01/30 12:59:14;;;;;;;18.77;3.50;;;;;;;;;;5054673;28;20120;-72
2023/01/30 13:01:43;;;;;;;31.38;4.38;;;;;;;;;;5054384;28;20417;-72
2023/01/30 13:04:25;;;;;;;22.63;3.67;;;;;;;;;;5054450;28;20091;-72
2023/01/30 13:06:51;;;;;;;21.90;3.63;;;;;;;;;;5054043;28;20123;-72
2023/01/30 13:09:30;;;;;;;20.70;3.95;;;;;;;;;;5054316;28;20036;-73
2023/01/30 13:12:04;;;;;;;21.65;3.38;;;;;;;;;;5054139;28;20045;-72
2023/01/30 13:14:35;;;;;;;25.40;3.40;;;;;;;;;;5054152;28;20150;-72
2023/01/30 13:17:01;;;;;;;24.00;3.30;;;;;;;;;;5054274;28;20052;-72
2023/01/30 13:19:54;;;;;;;26.10;3.05;;;;;;;;;;5037506;28;20029;-72
2023/01/30 13:22:27;;;;;;;28.67;4.15;;;;;;;;;;5026361;28;20053;-72
2023/01/30 13:24:53;;;;;;;24.40;3.42;;;;;;;;;;5040067;28;20099;-72
2023/01/30 13:27:21;;;;;;;25.38;3.80;;;;;;;;;;5053973;28;20056;-71
2023/01/30 13:29:48;;;;;;;27.35;4.38;;;;;;;;;;5053566;28;20079;-71
2023/01/30 13:32:18;;;;;;;24.38;3.42;;;;;;;;;;5054126;28;20044;-71
2023/01/30 13:34:46;;;;;;;29.83;5.05;;;;;;;;;;5036896;28;20079;-71
2023/01/30 13:37:19;;;;;;;31.83;4.40;;;;;;;;;;5053961;28;20044;-71
2023/01/30 13:39:45;;;;;;;24.45;3.67;;;;;;;;;;5053493;28;20045;-71
2023/01/30 13:42:17;;;;;;;27.95;3.83;;;;;;;;;;5054894;28;20432;-72
2023/01/30 13:44:44;;;;;;;33.08;4.50;;;;;;;;;;5053468;28;20033;-72
2023/01/30 13:47:26;;;;;;;28.73;3.70;;;;;;;;;;5053599;28;20037;-71
2023/01/30 13:49:59;;;;;;;29.42;3.75;;;;;;;;;;5053167;28;20047;-72
2023/01/30 13:52:25;;;;;;;27.15;3.88;;;;;;;;;;5053453;28;20120;-72
2023/01/30 13:55:04;;;;;;;28.40;4.35;;;;;;;;;;5036473;28;20067;-72
2023/01/30 13:57:30;;;;;;;31.25;5.72;;;;;;;;;;5052984;28;20048;-72
2023/01/30 13:59:59;;;;;;;20.02;3.67;;;;;;;;;;5036432;28;20045;-72
2023/01/30 14:02:26;;;;;;;28.05;4.15;;;;;;;;;;5053532;28;20123;-71
2023/01/30 14:04:52;;;;;;;24.95;3.63;;;;;;;;;;5052034;28;20099;-72
2023/01/30 14:07:25;;;;;;;19.45;5.03;;;;;;;;;;5037052;28;20501;-73
2023/01/30 14:10:09;;;;;;;27.23;3.65;;;;;;;;;;5036041;28;20044;-72
2023/01/30 14:12:37;;;;;;;26.25;3.40;;;;;;;;;;5052337;28;20036;-72
2023/01/30 14:15:03;;;;;;;24.00;3.30;;;;;;;;;;5053037;28;20124;-72
2023/01/30 14:17:29;;;;;;;24.63;3.83;;;;;;;;;;5052961;28;20069;-73
2023/01/30 14:20:00;;;;;;;19.90;3.33;;;;;;;;;;5052456;28;20041;-72
2023/01/30 14:22:33;;;;;;;24.88;3.95;;;;;;;;;;5039441;28;20042;-72
2023/01/30 14:25:17;;;;;;;24.67;3.88;;;;;;;;;;5053979;28;20105;-72
2023/01/30 14:27:43;;;;;;;23.15;3.50;;;;;;;;;;5052522;28;20123;-71
2023/01/30 14:30:28;;;;;;;30.23;3.35;;;;;;;;;;5053142;28;20044;-72
2023/01/30 14:32:55;;;;;;;24.77;3.70;;;;;;;;;;5035536;28;20076;-72
2023/01/30 14:35:22;;;;;;;23.95;4.05;;;;;;;;;;5052631;28;20037;-72
2023/01/30 14:37:49;;;;;;;31.20;4.25;;;;;;;;;;5052288;28;20068;-72
2023/01/30 14:40:22;;;;;;;28.52;4.45;;;;;;;;;;5052565;28;20045;-72
2023/01/30 14:43:23;;;;;;;25.55;4.22;;;;;;;;;;5068713;28;20051;-72